sensor_id;sensor_type;location;lat;lon;timestamp;P1;durP1;ratioP1;P2;durP2;ratioP2
60867;SDS011;46702;48.370;10.794;2022-08-24T00:00:50;3.10;;;2.90;;
60867;SDS011;46702;48.370;10.794;2022-08-24T00:03:16;3.67;;;3.17;;
60867;SDS011;46702;48.370;10.794;2022-08-24T00:05:42;3.38;;;3.10;;
60867;SDS011;46702;48.370;10.794;2022-08-24T02:20:54;4.10;;;3.80;;
60867;SDS011;46702;48.370;10.794;2022-08-24T02:23:19;4.30;;;3.90;;
60867;SDS011;46702;48.370;10.794;2022-08-24T02:25:45;4.35;;;3.95;;
60867;SDS011;46702;48.370;10.794;2022-08-24T02:28:12;3.67;;;3.38;;
60867;SDS011;46702;48.370;10.794;2022-08-24T02:30:38;3.00;;;2.65;;
60867;SDS011;46702;48.370;10.794;2022-08-24T02:33:04;3.17;;;2.88;;
60867;SDS011;46702;48.370;10.794;2022-08-24T02:35:30;3.58;;;3.28;;
60867;SDS011;46702;48.370;10.794;2022-08-24T02:37:56;3.05;;;2.85;;
60867;SDS011;46702;48.370;10.794;2022-08-24T03:06:50;7.50;;;4.40;;
60867;SDS011;46702;48.370;10.794;2022-08-24T03:09:16;5.15;;;4.65;;
60867;SDS011;46702;48.370;10.794;2022-08-24T03:11:42;4.75;;;4.35;;
60867;SDS011;46702;48.370;10.794;2022-08-24T03:14:08;4.95;;;4.38;;
60867;SDS011;46702;48.370;10.794;2022-08-24T03:16:33;5.07;;;4.22;;
60867;SDS011;46702;48.370;10.794;2022-08-24T03:18:59;4.35;;;4.00;;
60867;SDS011;46702;48.370;10.794;2022-08-24T03:21:25;5.25;;;3.88;;
60867;SDS011;46702;48.370;10.794;2022-08-24T03:23:51;4.10;;;3.80;;
60867;SDS011;46702;48.370;10.794;2022-08-24T03:26:17;2.17;;;2.08;;
60867;SDS011;46702;48.370;10.794;2022-08-24T03:28:43;2.35;;;2.15;;
60867;SDS011;46702;48.370;10.794;2022-08-24T03:31:09;3.08;;;2.78;;
60867;SDS011;46702;48.370;10.794;2022-08-24T03:33:34;3.17;;;2.30;;
60867;SDS011;46702;48.370;10.794;2022-08-24T03:36:00;2.22;;;2.13;;
60867;SDS011;46702;48.370;10.794;2022-08-24T03:38:26;2.50;;;2.40;;
60867;SDS011;46702;48.370;10.794;2022-08-24T03:40:52;2.20;;;2.10;;
60867;SDS011;46702;48.370;10.794;2022-08-24T03:43:18;2.10;;;2.00;;
60867;SDS011;46702;48.370;10.794;2022-08-24T03:46:04;1.90;;;1.80;;
60867;SDS011;46702;48.370;10.794;2022-08-24T03:48:31;2.97;;;2.78;;
60867;SDS011;46702;48.370;10.794;2022-08-24T03:50:57;4.03;;;3.60;;
60867;SDS011;46702;48.370;10.794;2022-08-24T03:53:23;3.70;;;3.40;;
60867;SDS011;46702;48.370;10.794;2022-08-24T03:55:49;2.97;;;2.78;;
60867;SDS011;46702;48.370;10.794;2022-08-24T03:58:15;2.70;;;2.50;;
60867;SDS011;46702;48.370;10.794;2022-08-24T04:00:41;2.55;;;2.35;;
60867;SDS011;46702;48.370;10.794;2022-08-24T04:03:08;4.10;;;3.70;;
60867;SDS011;46702;48.370;10.794;2022-08-24T04:05:34;2.38;;;2.17;;
60867;SDS011;46702;48.370;10.794;2022-08-24T04:08:00;4.07;;;2.20;;
60867;SDS011;46702;48.370;10.794;2022-08-24T04:10:26;2.33;;;2.10;;
60867;SDS011;46702;48.370;10.794;2022-08-24T04:12:52;2.50;;;2.35;;
60867;SDS011;46702;48.370;10.794;2022-08-24T04:15:18;2.67;;;2.47;;
60867;SDS011;46702;48.370;10.794;2022-08-24T04:17:44;2.90;;;2.70;;
60867;SDS011;46702;48.370;10.794;2022-08-24T04:20:10;2.35;;;2.25;;
60867;SDS011;46702;48.370;10.794;2022-08-24T04:22:35;1.85;;;1.75;;
60867;SDS011;46702;48.370;10.794;2022-08-24T04:25:02;1.88;;;1.77;;
60867;SDS011;46702;48.370;10.794;2022-08-24T04:27:29;2.80;;;2.42;;
60867;SDS011;46702;48.370;10.794;2022-08-24T04:29:54;2.33;;;2.15;;
60867;SDS011;46702;48.370;10.794;2022-08-24T04:32:20;2.53;;;2.33;;
60867;SDS011;46702;48.370;10.794;2022-08-24T04:34:46;4.47;;;2.80;;
60867;SDS011;46702;48.370;10.794;2022-08-24T04:37:12;3.10;;;2.80;;
60867;SDS011;46702;48.370;10.794;2022-08-24T04:39:38;3.60;;;3.30;;
60867;SDS011;46702;48.370;10.794;2022-08-24T04:42:04;3.35;;;3.03;;
60867;SDS011;46702;48.370;10.794;2022-08-24T04:44:30;2.80;;;2.60;;
60867;SDS011;46702;48.370;10.794;2022-08-24T04:46:56;2.58;;;2.38;;
60867;SDS011;46702;48.370;10.794;2022-08-24T04:49:22;3.60;;;3.30;;
60867;SDS011;46702;48.370;10.794;2022-08-24T04:51:47;2.40;;;2.30;;
60867;SDS011;46702;48.370;10.794;2022-08-24T04:54:13;2.70;;;2.50;;
60867;SDS011;46702;48.370;10.794;2022-08-24T04:56:40;2.20;;;2.10;;
60867;SDS011;46702;48.370;10.794;2022-08-24T04:59:05;2.22;;;2.03;;
60867;SDS011;46702;48.370;10.794;2022-08-24T05:01:31;1.98;;;1.88;;
60867;SDS011;46702;48.370;10.794;2022-08-24T05:03:57;33.40;;;3.65;;
60867;SDS011;46702;48.370;10.794;2022-08-24T05:06:25;8.02;;;2.92;;
60867;SDS011;46702;48.370;10.794;2022-08-24T05:08:52;2.63;;;2.45;;
60867;SDS011;46702;48.370;10.794;2022-08-24T05:11:19;3.63;;;3.33;;
60867;SDS011;46702;48.370;10.794;2022-08-24T05:13:46;3.85;;;3.50;;
60867;SDS011;46702;48.370;10.794;2022-08-24T05:16:13;4.20;;;3.78;;
60867;SDS011;46702;48.370;10.794;2022-08-24T05:18:40;3.92;;;3.63;;
60867;SDS011;46702;48.370;10.794;2022-08-24T05:21:07;4.40;;;3.72;;
60867;SDS011;46702;48.370;10.794;2022-08-24T05:23:34;4.00;;;3.60;;
60867;SDS011;46702;48.370;10.794;2022-08-24T05:26:33;4.40;;;4.00;;
60867;SDS011;46702;48.370;10.794;2022-08-24T05:28:53;7.93;;;4.60;;
60867;SDS011;46702;48.370;10.794;2022-08-24T05:31:22;4.97;;;4.57;;
60867;SDS011;46702;48.370;10.794;2022-08-24T05:33:51;4.30;;;4.00;;
60867;SDS011;46702;48.370;10.794;2022-08-24T05:36:18;4.63;;;4.22;;
60867;SDS011;46702;48.370;10.794;2022-08-24T05:38:48;5.32;;;4.90;;
60867;SDS011;46702;48.370;10.794;2022-08-24T05:41:16;5.43;;;4.93;;
60867;SDS011;46702;48.370;10.794;2022-08-24T05:43:41;5.18;;;4.75;;
60867;SDS011;46702;48.370;10.794;2022-08-24T05:46:08;5.65;;;5.15;;
60867;SDS011;46702;48.370;10.794;2022-08-24T05:48:33;5.50;;;5.00;;
60867;SDS011;46702;48.370;10.794;2022-08-24T05:51:01;5.78;;;5.10;;
60867;SDS011;46702;48.370;10.794;2022-08-24T05:53:27;6.15;;;5.55;;
60867;SDS011;46702;48.370;10.794;2022-08-24T05:55:52;6.72;;;6.07;;
60867;SDS011;46702;48.370;10.794;2022-08-24T05:58:18;7.40;;;6.30;;
60867;SDS011;46702;48.370;10.794;2022-08-24T06:00:44;9.73;;;6.70;;
60867;SDS011;46702;48.370;10.794;2022-08-24T06:03:13;8.73;;;6.78;;
60867;SDS011;46702;48.370;10.794;2022-08-24T06:05:40;8.07;;;7.28;;
60867;SDS011;46702;48.370;10.794;2022-08-24T06:08:07;8.30;;;6.87;;
60867;SDS011;46702;48.370;10.794;2022-08-24T06:10:40;8.52;;;7.40;;
60867;SDS011;46702;48.370;10.794;2022-08-24T06:13:07;8.73;;;6.70;;
60867;SDS011;46702;48.370;10.794;2022-08-24T06:15:34;8.93;;;6.90;;
60867;SDS011;46702;48.370;10.794;2022-08-24T06:18:00;8.13;;;6.72;;
60867;SDS011;46702;48.370;10.794;2022-08-24T06:20:27;7.97;;;6.60;;
60867;SDS011;46702;48.370;10.794;2022-08-24T06:22:53;8.02;;;7.22;;
60867;SDS011;46702;48.370;10.794;2022-08-24T06:25:19;8.55;;;7.60;;
60867;SDS011;46702;48.370;10.794;2022-08-24T06:28:03;10.10;;;8.05;;
60867;SDS011;46702;48.370;10.794;2022-08-24T06:30:29;8.98;;;7.90;;
60867;SDS011;46702;48.370;10.794;2022-08-24T06:32:57;9.25;;;7.45;;
60867;SDS011;46702;48.370;10.794;2022-08-24T06:35:24;11.30;;;7.65;;
60867;SDS011;46702;48.370;10.794;2022-08-24T06:37:50;8.98;;;8.07;;
60867;SDS011;46702;48.370;10.794;2022-08-24T06:40:15;8.07;;;7.25;;
60867;SDS011;46702;48.370;10.794;2022-08-24T06:42:44;10.38;;;7.50;;
60867;SDS011;46702;48.370;10.794;2022-08-24T06:45:10;7.80;;;6.43;;
60867;SDS011;46702;48.370;10.794;2022-08-24T06:47:36;8.40;;;7.53;;
60867;SDS011;46702;48.370;10.794;2022-08-24T06:50:02;8.52;;;7.28;;
60867;SDS011;46702;48.370;10.794;2022-08-24T06:52:30;7.78;;;6.85;;
60867;SDS011;46702;48.370;10.794;2022-08-24T06:54:56;7.78;;;6.90;;
60867;SDS011;46702;48.370;10.794;2022-08-24T06:57:22;7.00;;;6.30;;
60867;SDS011;46702;48.370;10.794;2022-08-24T06:59:47;8.93;;;6.25;;
60867;SDS011;46702;48.370;10.794;2022-08-24T07:02:13;7.65;;;6.55;;
60867;SDS011;46702;48.370;10.794;2022-08-24T07:04:42;9.52;;;7.00;;
60867;SDS011;46702;48.370;10.794;2022-08-24T07:07:09;6.72;;;6.07;;
60867;SDS011;46702;48.370;10.794;2022-08-24T07:09:36;7.07;;;6.38;;
60867;SDS011;46702;48.370;10.794;2022-08-24T07:12:02;8.82;;;6.47;;
60867;SDS011;46702;48.370;10.794;2022-08-24T07:14:28;7.32;;;6.63;;
60867;SDS011;46702;48.370;10.794;2022-08-24T07:16:54;7.70;;;6.05;;
60867;SDS011;46702;48.370;10.794;2022-08-24T07:19:20;7.00;;;6.30;;
60867;SDS011;46702;48.370;10.794;2022-08-24T07:21:46;7.47;;;6.75;;
60867;SDS011;46702;48.370;10.794;2022-08-24T07:24:12;10.00;;;7.28;;
60867;SDS011;46702;48.370;10.794;2022-08-24T07:26:38;7.68;;;6.82;;
60867;SDS011;46702;48.370;10.794;2022-08-24T07:29:08;8.85;;;7.28;;
60867;SDS011;46702;48.370;10.794;2022-08-24T07:31:38;8.27;;;7.10;;
60867;SDS011;46702;48.370;10.794;2022-08-24T07:34:05;11.90;;;8.68;;
60867;SDS011;46702;48.370;10.794;2022-08-24T07:36:33;10.57;;;8.02;;
60867;SDS011;46702;48.370;10.794;2022-08-24T07:38:59;9.00;;;8.10;;
60867;SDS011;46702;48.370;10.794;2022-08-24T07:41:25;9.85;;;8.15;;
60867;SDS011;46702;48.370;10.794;2022-08-24T07:43:52;8.73;;;7.93;;
60867;SDS011;46702;48.370;10.794;2022-08-24T07:46:18;10.95;;;7.90;;
60867;SDS011;46702;48.370;10.794;2022-08-24T07:48:44;8.25;;;7.43;;
60867;SDS011;46702;48.370;10.794;2022-08-24T07:51:12;9.55;;;7.00;;
60867;SDS011;46702;48.370;10.794;2022-08-24T07:53:39;8.75;;;7.38;;
60867;SDS011;46702;48.370;10.794;2022-08-24T07:56:05;8.95;;;7.43;;
60867;SDS011;46702;48.370;10.794;2022-08-24T07:58:32;9.32;;;6.88;;
60867;SDS011;46702;48.370;10.794;2022-08-24T08:00:57;8.20;;;6.53;;
60867;SDS011;46702;48.370;10.794;2022-08-24T08:03:24;7.57;;;6.88;;
60867;SDS011;46702;48.370;10.794;2022-08-24T08:05:55;7.40;;;6.70;;
60867;SDS011;46702;48.370;10.794;2022-08-24T08:08:21;7.63;;;6.93;;
60867;SDS011;46702;48.370;10.794;2022-08-24T08:10:47;6.93;;;6.22;;
60867;SDS011;46702;48.370;10.794;2022-08-24T08:13:13;9.85;;;6.25;;
60867;SDS011;46702;48.370;10.794;2022-08-24T08:15:39;6.07;;;5.47;;
60867;SDS011;46702;48.370;10.794;2022-08-24T08:18:05;7.55;;;6.05;;
60867;SDS011;46702;48.370;10.794;2022-08-24T08:20:31;6.45;;;5.60;;
60867;SDS011;46702;48.370;10.794;2022-08-24T08:22:57;6.53;;;5.93;;
60867;SDS011;46702;48.370;10.794;2022-08-24T08:25:46;6.18;;;5.28;;
60867;SDS011;46702;48.370;10.794;2022-08-24T08:28:16;5.82;;;5.22;;
60867;SDS011;46702;48.370;10.794;2022-08-24T08:30:43;6.43;;;5.15;;
60867;SDS011;46702;48.370;10.794;2022-08-24T08:33:09;6.30;;;5.15;;
60867;SDS011;46702;48.370;10.794;2022-08-24T08:35:36;7.32;;;5.13;;
60867;SDS011;46702;48.370;10.794;2022-08-24T08:38:02;7.32;;;5.10;;
60867;SDS011;46702;48.370;10.794;2022-08-24T08:54:28;6.00;;;4.65;;
60867;SDS011;46702;48.370;10.794;2022-08-24T09:02:40;5.47;;;3.92;;
60867;SDS011;46702;48.370;10.794;2022-08-24T09:05:36;6.93;;;5.00;;
60867;SDS011;46702;48.370;10.794;2022-08-24T09:16:48;6.57;;;4.05;;
60867;SDS011;46702;48.370;10.794;2022-08-24T09:23:12;3.35;;;3.03;;
60867;SDS011;46702;48.370;10.794;2022-08-24T09:28:29;3.72;;;3.28;;
60867;SDS011;46702;48.370;10.794;2022-08-24T09:33:49;4.18;;;3.72;;
60867;SDS011;46702;48.370;10.794;2022-08-24T09:36:45;4.57;;;3.70;;
60867;SDS011;46702;48.370;10.794;2022-08-24T09:41:59;4.25;;;3.50;;
60867;SDS011;46702;48.370;10.794;2022-08-24T10:22:30;2.30;;;2.17;;
60867;SDS011;46702;48.370;10.794;2022-08-24T10:28:11;3.05;;;2.75;;
60867;SDS011;46702;48.370;10.794;2022-08-24T10:31:07;3.10;;;2.80;;
60867;SDS011;46702;48.370;10.794;2022-08-24T10:36:19;3.05;;;2.75;;
60867;SDS011;46702;48.370;10.794;2022-08-24T10:39:06;3.38;;;3.08;;
60867;SDS011;46702;48.370;10.794;2022-08-24T10:45:19;3.35;;;3.05;;
60867;SDS011;46702;48.370;10.794;2022-08-24T10:48:12;3.95;;;3.05;;
60867;SDS011;46702;48.370;10.794;2022-08-24T10:50:58;3.38;;;3.08;;
60867;SDS011;46702;48.370;10.794;2022-08-24T10:53:46;3.75;;;3.13;;
60867;SDS011;46702;48.370;10.794;2022-08-24T10:56:15;4.18;;;2.80;;
60867;SDS011;46702;48.370;10.794;2022-08-24T10:59:19;3.50;;;3.03;;
60867;SDS011;46702;48.370;10.794;2022-08-24T11:01:58;5.43;;;3.40;;
60867;SDS011;46702;48.370;10.794;2022-08-24T11:04:30;3.20;;;2.90;;
60867;SDS011;46702;48.370;10.794;2022-08-24T11:09:44;3.13;;;2.70;;
60867;SDS011;46702;48.370;10.794;2022-08-24T11:12:20;3.63;;;2.80;;
60867;SDS011;46702;48.370;10.794;2022-08-24T11:15:01;3.20;;;3.00;;
60867;SDS011;46702;48.370;10.794;2022-08-24T11:17:55;3.30;;;3.00;;
60867;SDS011;46702;48.370;10.794;2022-08-24T11:25:32;3.30;;;3.03;;
60867;SDS011;46702;48.370;10.794;2022-08-24T11:28:05;3.28;;;2.97;;
60867;SDS011;46702;48.370;10.794;2022-08-24T11:30:39;3.63;;;2.92;;
60867;SDS011;46702;48.370;10.794;2022-08-24T11:33:18;3.42;;;3.00;;
60867;SDS011;46702;48.370;10.794;2022-08-24T11:35:47;3.20;;;2.90;;
60867;SDS011;46702;48.370;10.794;2022-08-24T11:38:31;3.22;;;2.92;;
60867;SDS011;46702;48.370;10.794;2022-08-24T11:41:07;2.88;;;2.67;;
60867;SDS011;46702;48.370;10.794;2022-08-24T11:43:58;2.78;;;2.58;;
60867;SDS011;46702;48.370;10.794;2022-08-24T11:46:53;2.95;;;2.67;;
60867;SDS011;46702;48.370;10.794;2022-08-24T11:52:09;3.22;;;2.60;;
60867;SDS011;46702;48.370;10.794;2022-08-24T12:00:11;3.17;;;2.38;;
60867;SDS011;46702;48.370;10.794;2022-08-24T12:02:58;3.97;;;2.63;;
60867;SDS011;46702;48.370;10.794;2022-08-24T12:08:40;2.70;;;2.50;;
60867;SDS011;46702;48.370;10.794;2022-08-24T12:11:15;2.95;;;2.75;;
60867;SDS011;46702;48.370;10.794;2022-08-24T12:13:51;2.75;;;2.47;;
60867;SDS011;46702;48.370;10.794;2022-08-24T12:16:30;3.30;;;3.00;;
60867;SDS011;46702;48.370;10.794;2022-08-24T12:21:25;2.70;;;2.50;;
60867;SDS011;46702;48.370;10.794;2022-08-24T12:24:00;2.53;;;2.33;;
60867;SDS011;46702;48.370;10.794;2022-08-24T12:26:36;2.63;;;2.42;;
60867;SDS011;46702;48.370;10.794;2022-08-24T12:29:28;2.95;;;2.75;;
60867;SDS011;46702;48.370;10.794;2022-08-24T12:31:56;3.10;;;2.50;;
60867;SDS011;46702;48.370;10.794;2022-08-24T12:34:28;5.03;;;2.60;;
60867;SDS011;46702;48.370;10.794;2022-08-24T12:39:44;3.03;;;2.50;;
60867;SDS011;46702;48.370;10.794;2022-08-24T12:45:04;2.65;;;2.30;;
60867;SDS011;46702;48.370;10.794;2022-08-24T12:47:44;5.07;;;2.50;;
60867;SDS011;46702;48.370;10.794;2022-08-24T12:50:38;3.78;;;2.50;;
60867;SDS011;46702;48.370;10.794;2022-08-24T13:01:05;2.35;;;2.22;;
60867;SDS011;46702;48.370;10.794;2022-08-24T13:03:32;2.92;;;2.40;;
60867;SDS011;46702;48.370;10.794;2022-08-24T13:06:06;3.55;;;2.17;;
60867;SDS011;46702;48.370;10.794;2022-08-24T13:08:49;3.67;;;2.60;;
60867;SDS011;46702;48.370;10.794;2022-08-24T13:21:40;2.90;;;2.22;;
60867;SDS011;46702;48.370;10.794;2022-08-24T13:26:56;2.75;;;2.47;;
60867;SDS011;46702;48.370;10.794;2022-08-24T13:29:43;2.38;;;2.17;;
60867;SDS011;46702;48.370;10.794;2022-08-24T13:32:30;2.00;;;1.80;;
60867;SDS011;46702;48.370;10.794;2022-08-24T13:35:03;2.10;;;2.00;;
60867;SDS011;46702;48.370;10.794;2022-08-24T13:41:41;2.40;;;2.20;;
60867;SDS011;46702;48.370;10.794;2022-08-24T13:43:57;2.67;;;2.10;;
60867;SDS011;46702;48.370;10.794;2022-08-24T13:57:40;2.33;;;2.05;;
60867;SDS011;46702;48.370;10.794;2022-08-24T14:14:35;2.90;;;2.13;;
60867;SDS011;46702;48.370;10.794;2022-08-24T14:20:48;2.47;;;2.22;;
60867;SDS011;46702;48.370;10.794;2022-08-24T14:23:42;2.45;;;1.90;;
60867;SDS011;46702;48.370;10.794;2022-08-24T14:31:39;2.17;;;1.98;;
60867;SDS011;46702;48.370;10.794;2022-08-24T14:39:50;2.17;;;2.00;;
60867;SDS011;46702;48.370;10.794;2022-08-24T14:50:49;2.10;;;1.90;;
60867;SDS011;46702;48.370;10.794;2022-08-24T14:53:56;2.33;;;1.50;;
60867;SDS011;46702;48.370;10.794;2022-08-24T14:56:37;4.10;;;2.13;;
60867;SDS011;46702;48.370;10.794;2022-08-24T15:07:56;2.33;;;1.90;;
60867;SDS011;46702;48.370;10.794;2022-08-24T15:13:37;1.70;;;1.52;;
60867;SDS011;46702;48.370;10.794;2022-08-24T15:16:08;1.80;;;1.70;;
60867;SDS011;46702;48.370;10.794;2022-08-24T15:24:39;2.03;;;1.83;;
60867;SDS011;46702;48.370;10.794;2022-08-24T15:30:06;2.13;;;1.92;;
60867;SDS011;46702;48.370;10.794;2022-08-24T15:32:45;3.17;;;1.80;;
60867;SDS011;46702;48.370;10.794;2022-08-24T15:35:24;2.10;;;1.63;;
60867;SDS011;46702;48.370;10.794;2022-08-24T15:37:55;1.88;;;1.70;;
60867;SDS011;46702;48.370;10.794;2022-08-24T15:40:24;1.70;;;1.60;;
60867;SDS011;46702;48.370;10.794;2022-08-24T15:42:54;2.03;;;1.83;;
60867;SDS011;46702;48.370;10.794;2022-08-24T15:45:27;2.50;;;1.80;;
60867;SDS011;46702;48.370;10.794;2022-08-24T15:47:54;1.73;;;1.63;;
60867;SDS011;46702;48.370;10.794;2022-08-24T15:50:25;2.20;;;2.03;;
60867;SDS011;46702;48.370;10.794;2022-08-24T16:00:58;2.72;;;1.90;;
60867;SDS011;46702;48.370;10.794;2022-08-24T16:03:53;1.75;;;1.65;;
60867;SDS011;46702;48.370;10.794;2022-08-24T16:11:36;2.00;;;1.70;;
60867;SDS011;46702;48.370;10.794;2022-08-24T16:14:03;1.80;;;1.70;;
60867;SDS011;46702;48.370;10.794;2022-08-24T16:16:47;2.88;;;1.88;;
60867;SDS011;46702;48.370;10.794;2022-08-24T16:19:31;2.60;;;1.60;;
60867;SDS011;46702;48.370;10.794;2022-08-24T16:22:03;1.70;;;1.45;;
60867;SDS011;46702;48.370;10.794;2022-08-24T16:24:36;2.17;;;1.70;;
60867;SDS011;46702;48.370;10.794;2022-08-24T16:27:10;2.22;;;1.77;;
60867;SDS011;46702;48.370;10.794;2022-08-24T16:34:41;1.55;;;1.45;;
60867;SDS011;46702;48.370;10.794;2022-08-24T16:37:08;1.77;;;1.67;;
60867;SDS011;46702;48.370;10.794;2022-08-24T16:39:33;1.50;;;1.40;;
60867;SDS011;46702;48.370;10.794;2022-08-24T16:42:03;2.85;;;1.52;;
60867;SDS011;46702;48.370;10.794;2022-08-24T16:44:35;1.42;;;1.33;;
60867;SDS011;46702;48.370;10.794;2022-08-24T16:47:04;1.50;;;1.40;;
60867;SDS011;46702;48.370;10.794;2022-08-24T16:49:31;1.50;;;1.40;;
60867;SDS011;46702;48.370;10.794;2022-08-24T16:51:57;1.52;;;1.42;;
60867;SDS011;46702;48.370;10.794;2022-08-24T16:54:24;1.60;;;1.50;;
60867;SDS011;46702;48.370;10.794;2022-08-24T16:56:50;1.65;;;1.55;;
60867;SDS011;46702;48.370;10.794;2022-08-24T16:59:24;1.67;;;1.40;;
60867;SDS011;46702;48.370;10.794;2022-08-24T17:01:52;1.50;;;1.40;;
60867;SDS011;46702;48.370;10.794;2022-08-24T17:04:18;1.52;;;1.42;;
60867;SDS011;46702;48.370;10.794;2022-08-24T17:06:44;3.47;;;1.60;;
60867;SDS011;46702;48.370;10.794;2022-08-24T17:11:37;1.60;;;1.50;;
60867;SDS011;46702;48.370;10.794;2022-08-24T17:14:03;2.70;;;1.60;;
60867;SDS011;46702;48.370;10.794;2022-08-24T17:16:28;2.58;;;1.73;;
60867;SDS011;46702;48.370;10.794;2022-08-24T17:18:56;2.47;;;1.80;;
60867;SDS011;46702;48.370;10.794;2022-08-24T17:21:23;2.63;;;1.80;;
60867;SDS011;46702;48.370;10.794;2022-08-24T17:23:49;1.98;;;1.77;;
60867;SDS011;46702;48.370;10.794;2022-08-24T17:26:15;2.92;;;1.67;;
60867;SDS011;46702;48.370;10.794;2022-08-24T17:28:42;1.70;;;1.60;;
60867;SDS011;46702;48.370;10.794;2022-08-24T17:31:11;1.75;;;1.63;;
60867;SDS011;46702;48.370;10.794;2022-08-24T17:33:37;1.70;;;1.60;;
60867;SDS011;46702;48.370;10.794;2022-08-24T17:36:04;1.70;;;1.60;;
60867;SDS011;46702;48.370;10.794;2022-08-24T17:38:30;1.95;;;1.75;;
60867;SDS011;46702;48.370;10.794;2022-08-24T17:40:57;1.60;;;1.50;;
60867;SDS011;46702;48.370;10.794;2022-08-24T17:43:25;1.70;;;1.60;;
60867;SDS011;46702;48.370;10.794;2022-08-24T17:45:51;4.30;;;1.70;;
60867;SDS011;46702;48.370;10.794;2022-08-24T17:48:24;1.65;;;1.55;;
60867;SDS011;46702;48.370;10.794;2022-08-24T17:50:52;2.05;;;1.85;;
60867;SDS011;46702;48.370;10.794;2022-08-24T17:53:18;1.58;;;1.48;;
60867;SDS011;46702;48.370;10.794;2022-08-24T17:55:45;2.72;;;1.80;;
60867;SDS011;46702;48.370;10.794;2022-08-24T17:58:10;2.25;;;1.80;;
60867;SDS011;46702;48.370;10.794;2022-08-24T18:00:38;2.08;;;1.90;;
60867;SDS011;46702;48.370;10.794;2022-08-24T18:03:03;2.40;;;1.55;;
60867;SDS011;46702;48.370;10.794;2022-08-24T18:05:29;2.40;;;1.67;;
60867;SDS011;46702;48.370;10.794;2022-08-24T18:07:57;2.67;;;1.75;;
60867;SDS011;46702;48.370;10.794;2022-08-24T18:10:24;2.00;;;1.77;;
60867;SDS011;46702;48.370;10.794;2022-08-24T18:12:52;1.67;;;1.58;;
60867;SDS011;46702;48.370;10.794;2022-08-24T18:15:19;3.95;;;1.80;;
60867;SDS011;46702;48.370;10.794;2022-08-24T18:17:46;1.98;;;1.77;;
60867;SDS011;46702;48.370;10.794;2022-08-24T18:20:14;1.70;;;1.60;;
60867;SDS011;46702;48.370;10.794;2022-08-24T18:22:44;2.13;;;1.90;;
60867;SDS011;46702;48.370;10.794;2022-08-24T18:25:12;3.40;;;2.23;;
60867;SDS011;46702;48.370;10.794;2022-08-24T18:27:40;2.17;;;1.98;;
60867;SDS011;46702;48.370;10.794;2022-08-24T18:32:35;2.13;;;1.90;;
60867;SDS011;46702;48.370;10.794;2022-08-24T18:35:00;2.30;;;2.10;;
60867;SDS011;46702;48.370;10.794;2022-08-24T18:37:26;1.95;;;1.75;;
60867;SDS011;46702;48.370;10.794;2022-08-24T18:39:51;2.17;;;1.98;;
60867;SDS011;46702;48.370;10.794;2022-08-24T18:42:17;2.17;;;1.98;;
60867;SDS011;46702;48.370;10.794;2022-08-24T18:44:43;1.90;;;1.80;;
60867;SDS011;46702;48.370;10.794;2022-08-24T18:47:09;3.10;;;2.33;;
60867;SDS011;46702;48.370;10.794;2022-08-24T18:49:35;3.22;;;1.90;;
60867;SDS011;46702;48.370;10.794;2022-08-24T18:52:01;3.30;;;2.15;;
60867;SDS011;46702;48.370;10.794;2022-08-24T18:54:34;4.70;;;2.30;;
60867;SDS011;46702;48.370;10.794;2022-08-24T18:57:02;2.45;;;2.15;;
60867;SDS011;46702;48.370;10.794;2022-08-24T18:59:30;4.30;;;2.63;;
60867;SDS011;46702;48.370;10.794;2022-08-24T19:01:57;2.97;;;1.88;;
60867;SDS011;46702;48.370;10.794;2022-08-24T19:04:43;2.97;;;2.15;;
60867;SDS011;46702;48.370;10.794;2022-08-24T19:07:11;2.33;;;2.13;;
60867;SDS011;46702;48.370;10.794;2022-08-24T19:09:37;2.63;;;2.10;;
60867;SDS011;46702;48.370;10.794;2022-08-24T19:12:03;2.45;;;2.20;;
60867;SDS011;46702;48.370;10.794;2022-08-24T19:14:30;3.27;;;2.50;;
60867;SDS011;46702;48.370;10.794;2022-08-24T19:16:57;4.60;;;3.45;;
60867;SDS011;46702;48.370;10.794;2022-08-24T19:19:22;5.47;;;3.75;;
60867;SDS011;46702;48.370;10.794;2022-08-24T19:21:48;4.32;;;3.10;;
60867;SDS011;46702;48.370;10.794;2022-08-24T19:24:13;2.33;;;1.92;;
60867;SDS011;46702;48.370;10.794;2022-08-24T19:26:43;3.10;;;2.30;;
60867;SDS011;46702;48.370;10.794;2022-08-24T19:29:08;3.05;;;2.08;;
60867;SDS011;46702;48.370;10.794;2022-08-24T19:31:34;2.40;;;2.20;;
60867;SDS011;46702;48.370;10.794;2022-08-24T19:34:00;4.15;;;3.35;;
60867;SDS011;46702;48.370;10.794;2022-08-24T19:36:26;3.03;;;2.20;;
60867;SDS011;46702;48.370;10.794;2022-08-24T19:38:52;3.22;;;2.08;;
60867;SDS011;46702;48.370;10.794;2022-08-24T19:41:18;2.55;;;2.17;;
60867;SDS011;46702;48.370;10.794;2022-08-24T19:43:46;2.90;;;2.00;;
60867;SDS011;46702;48.370;10.794;2022-08-24T19:46:37;2.22;;;2.03;;
60867;SDS011;46702;48.370;10.794;2022-08-24T19:49:03;4.15;;;2.08;;
60867;SDS011;46702;48.370;10.794;2022-08-24T19:51:30;2.83;;;2.00;;
60867;SDS011;46702;48.370;10.794;2022-08-24T19:53:55;3.15;;;2.30;;
60867;SDS011;46702;48.370;10.794;2022-08-24T19:56:21;4.50;;;2.33;;
60867;SDS011;46702;48.370;10.794;2022-08-24T19:58:52;3.25;;;2.22;;
60867;SDS011;46702;48.370;10.794;2022-08-24T20:01:31;2.53;;;1.90;;
60867;SDS011;46702;48.370;10.794;2022-08-24T20:03:59;3.40;;;2.25;;
60867;SDS011;46702;48.370;10.794;2022-08-24T20:06:26;3.97;;;2.10;;
60867;SDS011;46702;48.370;10.794;2022-08-24T20:08:53;2.85;;;2.40;;
60867;SDS011;46702;48.370;10.794;2022-08-24T20:11:18;2.67;;;2.47;;
60867;SDS011;46702;48.370;10.794;2022-08-24T20:13:45;4.70;;;2.80;;
60867;SDS011;46702;48.370;10.794;2022-08-24T20:16:12;3.60;;;2.53;;
60867;SDS011;46702;48.370;10.794;2022-08-24T20:18:39;2.88;;;2.40;;
60867;SDS011;46702;48.370;10.794;2022-08-24T20:21:06;4.97;;;3.05;;
60867;SDS011;46702;48.370;10.794;2022-08-24T20:23:31;2.95;;;2.22;;
60867;SDS011;46702;48.370;10.794;2022-08-24T20:25:59;4.35;;;2.60;;
60867;SDS011;46702;48.370;10.794;2022-08-24T20:28:29;2.80;;;2.30;;
60867;SDS011;46702;48.370;10.794;2022-08-24T20:31:03;3.10;;;2.50;;
60867;SDS011;46702;48.370;10.794;2022-08-24T20:33:29;2.28;;;2.03;;
60867;SDS011;46702;48.370;10.794;2022-08-24T20:35:55;2.53;;;2.33;;
60867;SDS011;46702;48.370;10.794;2022-08-24T20:38:21;3.10;;;2.53;;
60867;SDS011;46702;48.370;10.794;2022-08-24T20:40:48;3.75;;;2.45;;
60867;SDS011;46702;48.370;10.794;2022-08-24T20:43:14;2.95;;;2.45;;
60867;SDS011;46702;48.370;10.794;2022-08-24T20:45:40;2.65;;;2.45;;
60867;SDS011;46702;48.370;10.794;2022-08-24T20:48:06;2.97;;;2.53;;
60867;SDS011;46702;48.370;10.794;2022-08-24T20:50:35;3.85;;;2.53;;
60867;SDS011;46702;48.370;10.794;2022-08-24T20:53:02;3.15;;;2.28;;
60867;SDS011;46702;48.370;10.794;2022-08-24T20:55:28;3.25;;;2.45;;
60867;SDS011;46702;48.370;10.794;2022-08-24T20:57:55;2.72;;;2.38;;
60867;SDS011;46702;48.370;10.794;2022-08-24T21:00:25;3.70;;;2.42;;
60867;SDS011;46702;48.370;10.794;2022-08-24T21:02:52;2.97;;;2.22;;
60867;SDS011;46702;48.370;10.794;2022-08-24T21:05:18;5.55;;;2.58;;
60867;SDS011;46702;48.370;10.794;2022-08-24T21:07:44;2.53;;;2.15;;
60867;SDS011;46702;48.370;10.794;2022-08-24T21:10:22;3.85;;;2.38;;
60867;SDS011;46702;48.370;10.794;2022-08-24T21:12:49;3.65;;;2.50;;
60867;SDS011;46702;48.370;10.794;2022-08-24T21:15:15;2.80;;;2.42;;
60867;SDS011;46702;48.370;10.794;2022-08-24T21:17:41;2.78;;;2.42;;
60867;SDS011;46702;48.370;10.794;2022-08-24T21:20:09;5.70;;;2.45;;